Time;durP1;ratioP1;P1;durP2;ratioP2;P2;SDS_P1;SDS_P2;PMS_P1;PMS_P2;Temp;Humidity;BMP_temperature;BMP_pressure;BME280_temperature;BME280_humidity;BME280_pressure;Samples;Min_cycle;Max_cycle;Signal;HPM_P1;HPM_P2
2023/11/17 00:00:13;;;;;;;9.52;7.88;;;9.40;99.90;;;9.73;91.26;101496.03;4806413;29;20051;-63
2023/11/17 00:02:42;;;;;;;10.02;7.40;;;9.40;99.90;;;9.35;91.30;101434.03;4806977;29;20059;-63
2023/11/17 00:05:11;;;;;;;9.63;7.70;;;9.40;99.90;;;9.72;91.01;101494.25;4806669;29;20577;-63
2023/11/17 00:07:41;;;;;;;11.93;7.72;;;9.40;99.90;;;9.72;91.00;101490.72;4806696;29;20615;-63
2023/11/17 00:10:10;;;;;;;10.13;8.00;;;9.40;99.90;;;9.63;91.21;101504.75;4807055;29;20057;-63
2023/11/17 00:12:41;;;;;;;11.45;7.82;;;9.40;99.90;;;9.56;91.59;101502.03;4807079;29;20401;-63
2023/11/17 00:15:12;;;;;;;13.82;7.97;;;9.30;99.90;;;9.54;91.66;101509.06;4806650;29;20112;-63
2023/11/17 00:17:41;;;;;;;13.48;8.10;;;9.20;99.90;;;9.58;91.75;101524.94;4820810;29;20054;-63
2023/11/17 00:20:10;;;;;;;13.15;7.28;;;9.30;99.90;;;9.62;92.04;101517.94;4807028;29;20047;-63
2023/11/17 00:22:40;;;;;;;12.32;7.22;;;9.30;99.90;;;9.66;91.72;101515.31;4806692;29;20451;-63
2023/11/17 00:25:09;;;;;;;9.93;7.25;;;9.30;99.90;;;9.70;91.39;101529.44;4806400;29;20086;-63
2023/11/17 00:27:38;;;;;;;10.15;6.63;;;9.40;99.90;;;9.71;91.46;101520.66;4806403;29;20062;-64
2023/11/17 00:30:08;;;;;;;9.38;7.15;;;9.40;99.90;;;9.73;91.18;101527.75;4806555;29;20066;-63
2023/11/17 00:32:37;;;;;;;11.13;6.97;;;9.40;99.90;;;9.66;91.06;101541.75;4806912;29;20065;-63
2023/11/17 00:35:09;;;;;;;12.80;7.07;;;9.40;99.90;;;9.64;91.61;101530.28;4805022;29;20043;-63
2023/11/17 00:37:38;;;;;;;9.77;7.53;;;9.30;99.90;;;9.60;91.86;101535.53;4820646;29;20061;-64
2023/11/17 00:40:10;;;;;;;10.73;7.35;;;9.30;99.90;;;9.52;91.82;101538.09;4806695;29;20069;-63
2023/11/17 00:42:39;;;;;;;10.57;7.20;;;9.20;99.90;;;9.57;91.98;101528.44;4805188;29;20062;-64
2023/11/17 00:45:09;;;;;;;10.73;7.95;;;9.20;99.90;;;9.57;92.52;101539.00;4806312;29;20054;-63
2023/11/17 00:47:38;;;;;;;10.13;7.22;;;9.20;99.90;;;9.58;92.71;101543.41;4806627;29;20462;-63
2023/11/17 00:50:11;;;;;;;10.32;7.38;;;9.20;99.90;;;9.66;92.78;101536.44;4806494;29;20089;-63
2023/11/17 00:52:41;;;;;;;13.68;7.82;;;9.30;99.90;;;9.70;92.00;101540.91;4806248;29;20061;-64
2023/11/17 00:55:13;;;;;;;11.60;7.57;;;9.40;99.90;;;9.77;92.03;101548.03;4820194;29;20505;-63
2023/11/17 00:57:43;;;;;;;9.52;7.22;;;9.40;99.90;;;9.72;91.69;101552.38;4806201;29;20295;-63
2023/11/17 01:00:14;;;;;;;9.20;7.32;;;9.40;99.90;;;9.67;92.09;101546.16;4806161;29;20054;-63
2023/11/17 01:02:42;;;;;;;9.40;6.70;;;9.30;99.90;;;9.63;92.12;101543.47;4804694;29;20065;-64
2023/11/17 01:05:11;;;;;;;8.25;6.97;;;9.30;99.90;;;9.62;92.34;101554.91;4806082;29;20417;-63
2023/11/17 01:07:41;;;;;;;10.13;7.00;;;9.30;99.90;;;9.60;92.49;101554.03;4820076;29;20047;-63
2023/11/17 01:10:11;;;;;;;8.02;6.40;;;9.30;99.90;;;9.61;93.00;101561.94;4805963;29;20050;-63
2023/11/17 01:12:39;;;;;;;10.25;6.90;;;9.30;99.90;;;9.63;93.44;101564.59;4805974;29;20092;-63
2023/11/17 01:15:10;;;;;;;11.05;6.68;;;9.30;99.90;;;9.65;93.13;101560.22;4805737;29;20120;-63
2023/11/17 01:17:38;;;;;;;8.85;6.85;;;9.30;99.90;;;9.64;93.16;101555.81;4806044;29;20055;-63
2023/11/17 01:20:09;;;;;;;11.10;7.13;;;9.40;99.90;;;9.67;93.21;101559.38;4805944;29;20055;-63
2023/11/17 01:22:39;;;;;;;9.88;6.72;;;9.30;99.90;;;9.49;93.07;101548.59;4819700;29;20154;-64
2023/11/17 01:25:08;;;;;;;10.10;6.97;;;9.30;99.90;;;9.67;93.33;101563.75;4805908;29;20158;-64
2023/11/17 01:27:39;;;;;;;8.38;7.07;;;9.30;99.90;;;9.76;92.84;101569.13;4805840;29;20062;-64
2023/11/17 01:30:09;;;;;;;;;;;9.40;99.90;;;9.73;92.61;101575.28;4806333;29;20051;-64
2023/11/17 01:32:37;;;;;;;10.50;7.07;;;9.40;99.90;;;9.77;92.82;101584.13;4805832;29;19932;-63
2023/11/17 01:35:07;;;;;;;8.05;6.78;;;9.40;99.90;;;9.75;92.88;101584.13;4819976;29;20477;-64
2023/11/17 01:37:35;;;;;;;9.07;6.88;;;9.40;99.90;;;9.87;93.22;101578.94;4804516;29;20481;-64
2023/11/17 01:40:05;;;;;;;12.23;7.30;;;9.50;99.90;;;9.85;93.08;101580.66;4805812;29;20080;-64
2023/11/17 01:42:34;;;;;;;11.20;6.72;;;9.50;99.90;;;9.88;93.54;101579.81;4805842;29;20055;-64
2023/11/17 01:45:07;;;;;;;9.27;7.35;;;9.50;99.90;;;9.91;93.42;101582.50;4819639;29;20062;-63
2023/11/17 01:47:37;;;;;;;10.18;6.95;;;9.50;99.90;;;9.88;93.51;101583.38;4805982;29;20051;-64
2023/11/17 01:50:09;;;;;;;8.43;6.80;;;9.50;99.90;;;9.81;93.67;101583.28;4805623;29;20051;-64
2023/11/17 01:52:40;;;;;;;11.85;7.65;;;9.50;99.90;;;9.77;93.36;101586.78;4805728;29;20107;-64
2023/11/17 01:55:11;;;;;;;14.20;7.93;;;9.40;99.90;;;9.75;93.17;101589.41;4819326;29;20050;-64
2023/11/17 01:57:42;;;;;;;11.70;8.13;;;9.40;99.90;;;9.72;92.86;101581.44;4805459;29;20497;-64
2023/11/17 02:00:14;;;;;;;12.23;7.82;;;9.40;99.90;;;9.79;92.71;101585.88;4805871;29;20074;-64
2023/11/17 02:02:47;;;;;;;10.95;7.55;;;9.40;99.90;;;9.83;92.53;101584.19;4804277;29;20490;-64
2023/11/17 02:05:20;;;;;;;16.67;8.10;;;9.50;99.90;;;9.83;93.26;101582.41;4819423;29;20062;-63
2023/11/17 02:08:08;;;;;;;13.15;8.43;;;9.50;99.90;;;9.81;92.73;101581.50;4819491;29;20138;-64
2023/11/17 02:10:44;;;;;;;9.43;7.88;;;9.50;99.90;;;9.87;92.57;101581.56;4803884;29;20055;-64
2023/11/17 02:13:25;;;;;;;10.10;7.40;;;9.50;99.90;;;9.92;92.35;101582.53;4805493;29;20055;-64
2023/11/17 02:15:57;;;;;;;9.63;7.80;;;9.60;99.90;;;9.97;92.70;101585.19;4819433;29;20138;-64
2023/11/17 02:18:30;;;;;;;15.02;7.88;;;9.60;99.90;;;10.01;92.42;101585.25;4805483;29;20099;-64
2023/11/17 02:21:01;;;;;;;10.23;7.70;;;9.70;99.90;;;10.06;92.16;101576.47;4819335;29;20517;-64
2023/11/17 02:23:31;;;;;;;12.93;8.45;;;9.80;99.90;;;10.13;92.08;101583.59;4804795;29;20062;-64
2023/11/17 02:26:17;;;;;;;14.00;9.23;;;9.80;99.90;;;10.14;91.91;101591.56;4808540;29;20504;-64
2023/11/17 02:28:58;;;;;;;13.50;7.97;;;9.80;99.90;;;10.20;91.60;101581.03;4808779;29;20057;-64
2023/11/17 02:31:32;;;;;;;13.27;7.45;;;9.90;99.90;;;9.69;90.99;101475.75;4822433;29;20061;-64
2023/11/17 02:34:04;;;;;;;12.43;8.00;;;9.90;99.90;;;10.25;90.52;101589.00;4808419;29;20047;-64
2023/11/17 02:36:33;;;;;;;15.00;8.02;;;10.00;99.90;;;10.26;90.53;101583.72;4822359;29;20065;-64
2023/11/17 02:39:13;;;;;;;13.88;8.07;;;10.00;99.90;;;10.32;89.98;101574.94;4808555;29;20057;-63
2023/11/17 02:41:47;;;;;;;9.93;7.82;;;10.00;99.90;;;10.21;89.89;101580.16;4822341;29;20111;-64
2023/11/17 02:44:17;;;;;;;15.20;7.90;;;10.00;99.90;;;10.01;89.49;101540.31;4822235;29;20046;-64
2023/11/17 02:46:58;;;;;;;12.38;8.68;;;10.00;99.90;;;9.75;89.74;101570.00;4808619;29;20125;-64
2023/11/17 02:49:40;;;;;;;11.15;8.10;;;9.70;99.90;;;9.93;90.23;101572.81;4822132;29;20061;-63
2023/11/17 02:52:15;;;;;;;11.02;7.57;;;9.60;99.90;;;9.64;90.24;101575.16;4822078;29;20059;-63
2023/11/17 02:54:44;;;;;;;12.93;7.68;;;9.50;99.90;;;9.46;91.08;101564.44;4822021;29;20150;-63
2023/11/17 02:57:15;;;;;;;12.60;8.02;;;9.20;99.90;;;9.34;92.69;101566.91;4806965;29;20051;-64
2023/11/17 02:59:46;;;;;;;9.52;6.95;;;9.10;99.90;;;9.37;92.89;101556.38;4806968;29;20230;-64
2023/11/17 03:02:19;;;;;;;11.32;7.20;;;9.00;99.90;;;9.41;93.03;101566.13;4821765;29;20124;-64
2023/11/17 03:04:52;;;;;;;12.35;7.97;;;9.10;99.90;;;9.50;92.14;101566.25;4808133;29;20050;-64
2023/11/17 03:07:21;;;;;;;13.73;7.43;;;9.20;99.90;;;9.56;92.51;101566.28;4806541;29;20054;-64
2023/11/17 03:09:51;;;;;;;14.02;7.53;;;9.20;99.90;;;9.36;92.85;101554.63;4807946;29;20050;-64
2023/11/17 03:12:21;;;;;;;10.70;7.55;;;9.10;99.90;;;9.38;92.70;101563.44;4807747;29;20577;-64
2023/11/17 03:14:53;;;;;;;11.93;7.32;;;9.10;99.90;;;9.35;93.07;101565.19;4807688;29;20509;-63
2023/11/17 03:17:25;;;;;;;19.77;8.00;;;9.10;99.90;;;9.34;93.27;101560.75;4808316;29;20375;-64
2023/11/17 03:19:54;;;;;;;10.52;7.40;;;9.00;99.90;;;9.22;93.58;101556.22;4807675;29;20429;-63
2023/11/17 03:22:22;;;;;;;12.93;7.60;;;9.00;99.90;;;9.16;93.77;101561.41;4807663;29;20478;-64
2023/11/17 03:24:51;;;;;;;12.55;7.03;;;8.90;99.90;;;9.21;94.05;101556.19;4807676;29;20059;-63
2023/11/17 03:27:19;;;;;;;12.52;7.30;;;8.90;99.90;;;9.27;93.73;101557.13;4807678;29;20051;-64
2023/11/17 03:29:47;;;;;;;12.60;7.63;;;9.00;99.90;;;9.46;93.30;101563.53;4807551;29;20054;-64
2023/11/17 03:32:16;;;;;;;13.27;8.15;;;9.20;99.90;;;9.39;93.04;101565.22;4807615;29;20043;-64
2023/11/17 03:34:46;;;;;;;12.52;7.30;;;9.20;99.90;;;9.41;93.34;101566.13;4820649;29;20529;-63
2023/11/17 03:37:18;;;;;;;12.30;7.57;;;9.20;99.90;;;9.41;93.26;101566.13;4807342;29;20046;-63
2023/11/17 03:39:47;;;;;;;10.55;7.28;;;9.20;99.90;;;9.48;93.10;101562.69;4807533;29;20116;-63
2023/11/17 03:42:18;;;;;;;11.75;8.32;;;9.20;99.90;;;9.58;92.78;101563.69;4807509;29;20047;-64
2023/11/17 03:44:48;;;;;;;11.20;7.90;;;9.30;99.90;;;9.55;92.65;101558.34;4807256;29;20070;-64
2023/11/17 03:47:16;;;;;;;12.05;8.35;;;9.30;99.90;;;9.53;92.64;101554.81;4821308;29;20051;-63
2023/11/17 03:49:47;;;;;;;14.00;8.23;;;9.40;99.90;;;9.50;92.73;101560.06;4821187;29;20397;-64
2023/11/17 03:52:16;;;;;;;13.55;8.95;;;9.30;99.90;;;9.32;93.67;101562.47;4807275;29;20046;-64
2023/11/17 03:54:44;;;;;;;17.77;9.15;;;9.10;99.90;;;9.25;94.23;101558.91;4807264;29;20084;-64
2023/11/17 03:57:13;;;;;;;14.15;9.20;;;9.00;99.90;;;9.30;94.48;101561.56;4821050;29;20057;-64
2023/11/17 03:59:46;;;;;;;12.13;9.38;;;9.00;99.90;;;9.09;95.21;101555.19;4807109;29;20085;-64
2023/11/17 04:02:15;;;;;;;16.63;9.27;;;8.90;99.90;;;9.12;95.42;101564.88;4806894;29;20055;-64
2023/11/17 04:04:43;;;;;;;15.60;9.18;;;8.90;99.90;;;9.19;95.98;101555.28;4821067;29;20058;-63
2023/11/17 04:07:15;;;;;;;14.57;9.15;;;8.90;99.90;;;9.25;95.92;101566.81;4821016;29;20063;-64
2023/11/17 04:09:47;;;;;;;15.40;9.60;;;8.90;99.90;;;9.36;95.74;101566.94;4821174;29;20150;-64
2023/11/17 04:12:15;;;;;;;17.48;9.75;;;9.00;99.90;;;9.42;95.03;101578.47;4805713;29;20077;-64
2023/11/17 04:14:45;;;;;;;14.63;9.93;;;9.10;99.90;;;9.44;94.58;101570.56;4806615;29;20131;-63
2023/11/17 04:17:14;;;;;;;12.07;8.98;;;9.20;99.90;;;9.43;94.56;101579.31;4820846;29;20460;-64
2023/11/17 04:19:43;;;;;;;11.77;8.60;;;9.20;99.90;;;9.40;94.48;101584.59;4806476;29;20097;-63
2023/11/17 04:22:12;;;;;;;14.25;9.20;;;9.20;99.90;;;9.37;94.50;101572.22;4820712;29;20059;-63
2023/11/17 04:24:43;;;;;;;13.63;9.35;;;9.20;99.90;;;9.54;94.21;101580.34;4820735;29;20104;-63
2023/11/17 04:27:12;;;;;;;11.07;9.25;;;9.30;99.90;;;9.64;93.81;101584.88;4806970;29;20047;-64
2023/11/17 04:29:41;;;;;;;16.85;9.30;;;9.40;99.90;;;9.58;93.72;101571.59;4806636;29;20149;-64
2023/11/17 04:32:09;;;;;;;15.57;9.48;;;9.40;99.90;;;9.53;93.93;101586.50;4806282;29;20409;-63
2023/11/17 04:34:39;;;;;;;13.35;9.48;;;9.30;99.90;;;9.46;93.81;101585.56;4806868;29;20458;-63
2023/11/17 04:37:08;;;;;;;15.00;10.32;;;9.20;99.90;;;9.54;94.25;101589.13;4820488;29;20642;-63
2023/11/17 04:39:36;;;;;;;14.55;10.13;;;9.30;99.90;;;9.65;94.17;101594.56;4805174;29;20508;-64
2023/11/17 04:42:07;;;;;;;16.10;10.30;;;9.30;99.90;;;9.79;93.87;101596.47;4806058;29;20501;-64
2023/11/17 04:44:35;;;;;;;13.45;9.85;;;9.50;99.90;;;9.86;93.38;101597.41;4806469;29;20050;-64
2023/11/17 04:47:04;;;;;;;16.48;10.68;;;9.60;99.90;;;9.95;92.93;101597.50;4819910;29;20111;-64
2023/11/17 04:49:32;;;;;;;16.95;11.10;;;9.60;99.90;;;9.98;92.64;101592.25;4806497;29;20096;-64
2023/11/17 04:52:01;;;;;;;17.50;10.60;;;9.60;99.90;;;9.93;92.78;101589.56;4806150;29;20051;-64
2023/11/17 04:54:29;;;;;;;12.85;10.45;;;9.70;99.90;;;9.98;92.75;101594.91;4806198;29;20050;-64
2023/11/17 04:56:57;;;;;;;19.98;10.68;;;9.70;99.90;;;9.96;92.48;101594.91;4805946;29;20050;-63
2023/11/17 04:59:27;;;;;;;14.70;10.80;;;9.80;99.90;;;10.01;92.27;101597.56;4805827;29;20089;-64
2023/11/17 05:01:56;;;;;;;17.43;10.60;;;9.80;99.90;;;10.06;92.34;101594.97;4804997;29;20083;-63
2023/11/17 05:04:25;;;;;;;15.48;10.85;;;9.80;99.90;;;10.11;92.18;101598.56;4806391;29;20069;-64
2023/11/17 05:06:53;;;;;;;18.45;11.60;;;9.80;99.90;;;10.16;92.01;101592.47;4804821;29;20133;-64
2023/11/17 05:09:22;;;;;;;15.57;10.95;;;9.90;99.90;;;10.21;91.63;101595.13;4805775;29;20059;-64
2023/11/17 05:11:50;;;;;;;19.52;12.18;;;10.00;99.90;;;10.21;91.59;101601.31;4805663;29;20096;-64
2023/11/17 05:14:19;;;;;;;15.70;11.82;;;10.00;99.90;;;10.26;91.48;101604.00;4805901;29;20047;-64
2023/11/17 05:16:49;;;;;;;17.23;11.73;;;10.00;99.90;;;10.24;91.15;101596.03;4805953;29;20061;-64
2023/11/17 05:19:17;;;;;;;20.95;12.43;;;10.00;99.90;;;10.27;91.06;101606.66;4805932;29;20053;-64
2023/11/17 05:21:46;;;;;;;15.85;10.90;;;10.00;99.90;;;10.18;91.02;101611.84;4805658;29;20057;-64
2023/11/17 05:24:14;;;;;;;19.83;10.80;;;10.00;99.90;;;9.92;91.29;101618.63;4805840;29;20100;-64
2023/11/17 05:26:43;;;;;;;16.02;11.35;;;9.70;99.90;;;9.96;91.53;101620.44;4805534;29;20051;-63
2023/11/17 05:29:13;;;;;;;16.70;11.48;;;9.60;99.90;;;9.94;91.76;101625.72;4805547;29;20133;-64
2023/11/17 05:31:42;;;;;;;17.50;10.98;;;9.60;99.90;;;9.93;92.09;101626.56;4805584;29;20572;-63
2023/11/17 05:34:13;;;;;;;16.75;11.57;;;9.60;99.90;;;9.98;91.91;101624.88;4805511;29;20527;-63
2023/11/17 05:36:43;;;;;;;13.57;11.25;;;9.60;99.90;;;9.99;91.84;101623.09;4805832;29;20103;-64
2023/11/17 05:39:11;;;;;;;17.15;12.02;;;9.70;99.90;;;9.99;91.75;101626.63;4805554;29;20062;-64
2023/11/17 05:41:41;;;;;;;17.02;12.50;;;9.70;99.90;;;10.01;91.92;101624.00;4805507;29;20055;-64
2023/11/17 05:44:15;;;;;;;17.23;12.30;;;9.70;99.90;;;10.01;91.92;101640.75;4805665;29;20077;-64
2023/11/17 05:46:43;;;;;;;19.80;12.15;;;9.70;99.90;;;9.25;91.78;101492.91;4804470;29;20463;-64
2023/11/17 05:49:13;;;;;;;17.08;12.85;;;9.70;99.90;;;10.01;91.69;101635.47;4805418;29;20051;-64
2023/11/17 05:51:47;;;;;;;18.55;12.40;;;9.70;99.90;;;9.99;91.59;101631.91;4805651;29;20055;-63
2023/11/17 05:54:19;;;;;;;16.92;11.68;;;9.70;99.90;;;9.95;91.62;101630.09;4805347;29;20513;-64
2023/11/17 05:56:49;;;;;;;16.73;12.32;;;9.70;99.90;;;9.95;91.42;101629.22;4805414;29;20544;-64
2023/11/17 05:59:18;;;;;;;20.02;11.80;;;9.70;99.90;;;9.96;91.27;101636.28;4807272;29;20070;-64
2023/11/17 06:01:46;;;;;;;20.77;12.43;;;9.70;99.90;;;9.97;91.50;101638.03;4809349;29;20047;-64
2023/11/17 06:04:16;;;;;;;19.65;12.80;;;9.70;99.90;;;9.95;91.41;101640.69;4809584;29;20067;-64
2023/11/17 06:06:44;;;;;;;19.98;13.02;;;9.70;99.90;;;9.90;91.28;101641.50;4808814;29;20061;-64
2023/11/17 06:09:13;;;;;;;19.45;12.95;;;9.60;99.90;;;9.86;91.58;101645.88;4808738;29;20046;-63
2023/11/17 06:11:41;;;;;;;20.30;13.30;;;9.60;99.90;;;9.77;91.44;101640.50;4807602;29;20587;-64
2023/11/17 06:14:10;;;;;;;15.75;12.05;;;9.50;99.90;;;9.70;91.75;101646.56;4808692;29;20063;-64
2023/11/17 06:16:39;;;;;;;18.83;13.38;;;9.40;99.90;;;9.45;92.10;101641.84;4809153;29;20051;-64
2023/11/17 06:19:08;;;;;;;20.35;13.50;;;9.20;99.90;;;9.44;93.14;101645.38;4808585;29;20054;-64
2023/11/17 06:21:38;;;;;;;17.35;12.13;;;9.10;99.90;;;9.28;93.40;101617.00;4808825;29;20074;-64
2023/11/17 06:24:08;;;;;;;18.33;11.97;;;9.10;99.90;;;9.44;93.41;101669.16;4808788;29;20386;-64
2023/11/17 06:26:37;;;;;;;19.80;13.35;;;9.10;99.90;;;9.30;93.66;101643.41;4822613;29;20805;-64
2023/11/17 06:29:05;;;;;;;21.10;14.88;;;9.10;99.90;;;9.41;94.26;101650.59;4808385;29;20046;-63
2023/11/17 06:31:34;;;;;;;19.92;13.90;;;9.10;99.90;;;9.43;94.41;101654.16;4808327;29;20111;-64
2023/11/17 06:34:04;;;;;;;27.20;14.13;;;9.10;99.90;;;9.40;94.94;101650.59;4807336;29;20145;-64
2023/11/17 06:36:37;;;;;;;18.00;13.32;;;9.20;99.90;;;9.43;95.16;101651.50;4808324;29;20081;-64
2023/11/17 06:39:14;;;;;;;20.52;14.48;;;9.20;99.90;;;9.40;95.46;101651.47;4808956;29;20042;-64
2023/11/17 06:41:43;;;;;;;22.75;14.90;;;9.10;99.90;;;9.36;95.25;101649.66;4808550;29;20065;-64
2023/11/17 06:44:12;;;;;;;22.17;14.75;;;9.10;99.90;;;9.31;95.28;101650.47;4808152;29;20122;-64
2023/11/17 06:46:41;;;;;;;20.08;15.10;;;9.10;99.90;;;9.35;95.91;101657.59;4808360;29;20051;-64
2023/11/17 06:49:10;;;;;;;29.08;15.38;;;9.10;99.90;;;9.35;96.02;101653.16;4808255;29;20399;-63
2023/11/17 06:51:38;;;;;;;21.13;14.82;;;9.10;99.90;;;9.34;95.61;101659.31;4808253;29;20447;-63
2023/11/17 06:54:10;;;;;;;19.13;14.52;;;9.10;99.90;;;8.99;95.52;101603.44;4807999;29;20066;-63
2023/11/17 06:56:40;;;;;;;24.08;15.20;;;9.10;99.90;;;9.34;95.48;101646.13;4808427;29;20070;-64
2023/11/17 06:59:09;;;;;;;24.20;15.88;;;9.20;99.90;;;9.43;95.60;101677.03;4807968;29;20039;-63
2023/11/17 07:01:38;;;;;;;28.70;14.90;;;9.20;99.90;;;9.33;95.19;101656.66;4808249;29;20046;-64
2023/11/17 07:04:08;;;;;;;22.60;15.70;;;9.10;99.90;;;9.33;95.42;101662.81;4807772;29;20069;-64
2023/11/17 07:06:37;;;;;;;31.08;16.00;;;9.10;99.90;;;9.26;95.68;101649.50;4807782;29;20077;-63
2023/11/17 07:09:15;;;;;;;21.60;15.25;;;9.10;99.90;;;9.31;95.72;101663.69;4807586;29;20051;-63
2023/11/17 07:11:46;;;;;;;20.20;15.65;;;9.00;99.90;;;9.34;96.21;101659.31;4807682;29;20516;-64
2023/11/17 07:14:16;;;;;;;23.27;16.17;;;9.10;99.90;;;9.37;96.09;101666.41;4808245;29;20146;-64
2023/11/17 07:16:45;;;;;;;24.20;16.13;;;9.10;99.90;;;9.40;96.26;101669.97;4807853;29;20111;-64
2023/11/17 07:19:16;;;;;;;29.50;17.00;;;9.10;99.90;;;9.35;96.20;101666.38;4807783;29;20042;-64
2023/11/17 07:21:47;;;;;;;27.00;17.27;;;9.10;99.90;;;9.42;96.87;101677.91;4807729;29;20399;-64
2023/11/17 07:24:17;;;;;;;25.63;17.95;;;9.20;99.90;;;9.45;96.92;101673.53;4807535;29;20129;-63
2023/11/17 07:26:47;;;;;;;25.92;17.25;;;9.20;99.90;;;9.46;96.85;101677.97;4806460;29;20051;-64
2023/11/17 07:29:16;;;;;;;26.92;17.65;;;9.20;99.90;;;9.50;96.81;101679.78;4807410;29;20050;-64
2023/11/17 07:31:47;;;;;;;27.90;17.77;;;9.20;99.90;;;9.49;96.63;101674.47;4807352;29;20103;-64
2023/11/17 07:34:16;;;;;;;27.42;17.65;;;9.30;99.90;;;9.50;96.75;101681.53;4807282;29;20121;-64
2023/11/17 07:36:47;;;;;;;27.60;17.93;;;9.30;99.90;;;9.51;96.84;101684.19;4807349;29;20123;-64
2023/11/17 07:39:18;;;;;;;30.20;18.88;;;9.30;99.90;;;9.50;96.81;101681.53;4807310;29;20099;-63
2023/11/17 07:41:49;;;;;;;26.25;18.17;;;9.30;99.90;;;9.46;96.75;101683.25;4807261;29;20129;-63
2023/11/17 07:44:22;;;;;;;29.08;18.05;;;9.30;99.90;;;9.31;96.76;101659.25;4806197;29;20425;-63
2023/11/17 07:46:52;;;;;;;26.58;18.75;;;9.30;99.90;;;9.50;97.06;101687.72;4807446;29;20058;-64
2023/11/17 07:49:21;;;;;;;25.05;16.95;;;9.30;99.90;;;9.30;96.97;101681.25;4807272;29;20087;-63
2023/11/17 07:51:50;;;;;;;29.98;17.48;;;9.20;99.90;;;9.19;98.21;101689.91;4807059;29;20043;-63
2023/11/17 07:54:19;;;;;;;28.77;19.40;;;9.00;99.90;;;8.94;99.16;101680.75;4807460;29;20054;-63
2023/11/17 07:56:50;;;;;;;29.77;17.38;;;8.80;99.90;;;9.17;99.83;101697.81;4806878;29;20074;-65
2023/11/17 07:59:21;;;;;;;29.20;19.05;;;8.90;99.90;;;9.25;99.41;101697.91;4807375;29;20050;-62
2023/11/17 08:01:50;;;;;;;28.20;17.67;;;9.00;99.90;;;9.28;99.20;101696.19;4807068;29;20047;-61
2023/11/17 08:04:19;;;;;;;27.48;17.55;;;9.10;99.90;;;9.39;99.77;101699.88;4806757;29;20074;-61
2023/11/17 08:06:48;;;;;;;26.38;17.02;;;9.10;99.90;;;9.42;99.41;101692.00;4806959;29;20054;-60
2023/11/17 08:09:17;;;;;;;25.20;18.65;;;9.20;99.90;;;9.41;99.59;101692.84;4807177;29;20047;-60
2023/11/17 08:11:47;;;;;;;27.80;18.55;;;9.20;99.90;;;9.51;99.71;101699.13;4806542;29;20119;-61
2023/11/17 08:14:18;;;;;;;31.75;19.73;;;9.30;99.90;;;9.53;99.62;101705.31;4806792;29;20049;-62
2023/11/17 08:16:46;;;;;;;;;;;9.30;99.90;;;9.51;99.55;101707.06;4807489;29;20069;-63
2023/11/17 08:19:15;;;;;;;29.02;19.63;;;9.40;99.90;;;9.63;99.73;101707.22;4806411;29;19925;-63
2023/11/17 08:21:54;;;;;;;30.75;20.60;;;9.40;99.90;;;9.45;99.47;101678.81;4820179;29;20130;-63
2023/11/17 08:24:23;;;;;;;28.15;19.65;;;9.50;99.90;;;9.56;99.66;101723.88;4820601;29;20069;-63
2023/11/17 08:26:52;;;;;;;26.85;19.13;;;9.50;99.90;;;9.62;99.87;101721.31;4806439;29;20505;-62
2023/11/17 08:29:23;;;;;;;28.77;21.15;;;9.40;99.90;;;9.54;100.00;101728.25;4806741;29;20086;-63
2023/11/17 08:31:52;;;;;;;28.92;22.08;;;9.40;99.90;;;8.95;100.00;101633.28;4806211;29;20055;-64
2023/11/17 08:34:22;;;;;;;29.00;20.95;;;9.40;99.90;;;9.62;100.00;101727.47;4806222;29;20042;-66
2023/11/17 08:36:51;;;;;;;30.67;22.40;;;9.50;99.90;;;9.68;100.00;101729.28;4806247;29;20468;-63
2023/11/17 08:39:26;;;;;;;35.65;23.38;;;9.60;99.90;;;9.67;100.00;101730.19;4805112;29;20042;-63
2023/11/17 08:41:56;;;;;;;41.97;23.52;;;9.50;99.90;;;9.75;100.00;101733.81;4806502;29;20061;-63
2023/11/17 08:44:27;;;;;;;31.23;23.15;;;9.60;99.90;;;9.83;100.00;101735.66;4806105;29;20078;-64
2023/11/17 08:46:56;;;;;;;35.42;24.10;;;9.70;99.90;;;9.95;100.00;101746.38;4806358;29;20191;-64
2023/11/17 08:49:25;;;;;;;31.13;23.90;;;9.80;99.90;;;10.00;100.00;101744.72;4805992;29;20508;-63
2023/11/17 08:51:54;;;;;;;33.83;24.52;;;9.80;99.90;;;10.20;100.00;101744.94;4806261;29;20080;-63
2023/11/17 08:54:22;;;;;;;31.15;22.50;;;10.00;99.90;;;10.42;100.00;101740.78;4806137;29;20485;-63
2023/11/17 08:56:52;;;;;;;30.75;21.80;;;10.20;99.90;;;10.52;99.92;101746.19;4805852;29;20078;-63
2023/11/17 08:59:20;;;;;;;36.83;22.10;;;10.40;99.90;;;10.59;99.54;101745.34;4805897;29;20046;-63
2023/11/17 09:01:50;;;;;;;34.50;21.75;;;10.40;99.90;;;10.69;99.36;101746.31;4806149;29;20704;-63
2023/11/17 09:04:19;;;;;;;37.17;22.07;;;10.50;99.90;;;10.73;98.69;101759.63;4804458;29;20104;-63
2023/11/17 09:06:47;;;;;;;31.77;21.77;;;10.50;99.90;;;10.82;98.20;101758.78;4805722;29;20395;-63
2023/11/17 09:09:17;;;;;;;33.38;21.48;;;10.60;99.90;;;10.75;98.13;101743.75;4805700;29;20054;-64
2023/11/17 09:11:59;;;;;;;;;;;10.70;99.90;;;10.94;97.41;101772.13;4806253;29;20056;-64
2023/11/17 09:14:30;;;;;;;31.65;22.70;;;10.80;99.90;;;10.97;97.26;101777.47;4805927;29;20288;-63
2023/11/17 09:17:06;;;;;;;38.00;22.33;;;10.80;99.90;;;11.06;97.12;101776.66;4805728;29;20554;-63
2023/11/17 09:19:37;;;;;;;32.60;22.73;;;10.90;99.90;;;11.06;96.57;101771.34;4806189;29;20108;-63
2023/11/17 09:22:05;;;;;;;32.80;21.73;;;10.90;99.90;;;11.13;96.40;101776.69;4805684;29;20051;-63
2023/11/17 09:24:34;;;;;;;30.15;21.95;;;10.90;99.90;;;11.18;96.21;101775.00;4804758;29;20062;-63
2023/11/17 09:27:03;;;;;;;34.28;21.95;;;11.00;99.90;;;11.19;95.97;101774.09;4805400;29;20055;-63
2023/11/17 09:29:33;;;;;;;30.23;21.20;;;11.00;99.90;;;11.24;95.84;101777.69;4804401;29;20054;-63
2023/11/17 09:32:04;;;;;;;27.90;21.38;;;11.00;99.90;;;11.27;95.62;101784.75;4805919;29;20115;-63
2023/11/17 09:34:32;;;;;;;30.98;20.63;;;11.00;99.90;;;11.28;95.47;101789.19;4808362;29;20096;-63
2023/11/17 09:37:02;;;;;;;30.10;21.63;;;11.00;99.90;;;11.61;97.07;101789.41;4809253;29;20446;-63
2023/11/17 09:39:31;;;;;;;29.88;20.77;;;11.30;99.90;;;12.15;98.04;101799.44;4808289;29;20082;-63
2023/11/17 09:42:03;;;;;;;27.35;20.15;;;11.80;99.90;;;12.76;98.07;101805.81;4809186;29;20493;-63
2023/11/17 09:44:34;;;;;;;23.33;17.98;;;12.50;99.90;;;13.19;94.77;101802.34;4823321;29;20390;-63
2023/11/17 09:47:18;;;;;;;23.00;16.35;;;13.00;99.90;;;13.66;89.96;101813.81;4809009;29;20058;-63
2023/11/17 09:49:48;;;;;;;19.55;14.10;;;13.40;99.90;;;13.95;85.02;101827.03;4809698;29;20450;-63
2023/11/17 09:52:18;;;;;;;16.55;13.10;;;13.70;99.90;;;14.18;82.80;101796.81;4809061;29;20050;-63
2023/11/17 09:54:47;;;;;;;17.38;12.35;;;14.10;99.90;;;14.62;79.43;101822.34;4807815;29;20108;-64
2023/11/17 09:57:18;;;;;;;14.45;11.80;;;14.40;99.90;;;14.90;76.80;101826.63;4809236;29;20054;-63
2023/11/17 09:59:49;;;;;;;14.38;10.50;;;14.60;99.90;;;15.20;75.18;101829.03;4809510;29;20111;-64
2023/11/17 10:02:20;;;;;;;13.10;10.80;;;14.90;99.90;;;15.57;74.10;101832.31;4807861;29;20145;-63
2023/11/17 10:04:50;;;;;;;13.63;10.23;;;15.30;99.90;;;15.59;71.41;101834.06;4808921;29;20055;-63
2023/11/17 10:07:24;;;;;;;11.25;9.27;;;15.40;99.90;;;15.58;70.80;101834.94;4808793;29;20141;-63
2023/11/17 10:09:55;;;;;;;12.20;9.75;;;15.40;99.90;;;15.69;69.85;101842.88;4809082;29;20051;-64
2023/11/17 10:12:27;;;;;;;11.43;8.68;;;15.40;99.90;;;15.33;67.86;101839.59;4809102;29;20051;-63
2023/11/17 10:14:56;;;;;;;12.05;8.70;;;15.20;99.90;;;15.15;68.23;101838.88;4807589;29;20421;-63
2023/11/17 10:17:28;;;;;;;9.65;7.53;;;14.90;99.90;;;14.93;68.30;101846.13;4808817;29;20051;-63
2023/11/17 10:19:58;;;;;;;10.35;7.90;;;14.70;99.90;;;14.60;68.40;101843.66;4808885;29;20042;-63
2023/11/17 10:22:28;;;;;;;9.45;7.07;;;14.40;99.90;;;14.42;69.42;101822.44;4808480;29;20111;-63
2023/11/17 10:24:57;;;;;;;;;;;14.20;99.90;;;14.38;69.95;101836.69;4807959;29;20066;-63
2023/11/17 10:27:27;;;;;;;10.98;7.65;;;14.20;99.90;;;14.27;70.16;101839.38;4808902;29;19968;-63